Raco, Michigan
Current Conditions -  °F | °C
As of 1:00 PM on Saturday 20 Dec 2014 (Local Time) from CYAM Reporting Station
Broken Clouds Broken Clouds  
Wind Chill: 14°   Ceiling: 26000
Heat Index: 21°   Visibility: 15mi
Dew Point: 19°   Wind: 6mph
Humidity: 93%   Direction: 60°ENE
Pressure: 30.28"   Gusts: NA
Location:  46.4104°N, 84.5584°W
Report Text: CYAM 201800Z 06005KT 15SM FEW018 BKN260 M06/M07 A3028 RMK SC1CS6 AC TR CI ASOCTD SLP270
Loading
Personal Weather Stations






























Interactive Weather Map New forecast layout! Learn more

10-Day Weather Forecast

Advertisements
Track Severe Weather on mobile